CheckWX is a tool to help pilots better visualize weather data.  It is not intended as a substitute for an official pre-flight weather briefing.

06:37:03 UTC

FQTT TAF
Chingozi Airport
Tete, Mozambique
TAF FQTT 260400Z 2606/2706 00000KT 9999 FEW020 TX28/2613Z TN16/2703Z BECMG 2612/2614 16010KT BECMG 2618/2620 23010KT

Jun-26@
06:00 UTC

Jun-26 @ 06:00 UTC

Jun-26@
12:00 UTC

Jun-26 @ 12:00 UTC

TAF FQTT 260400Z 2606/2706 00000KT 9999 FEW020 TX28/2613Z TN16/2703Z
Cloud Levels
  • Few at 2,000' AGL

Jun-26@
12:00 UTC

Jun-26 @ 12:00 UTC

Jun-26@
18:00 UTC

Jun-26 @ 18:00 UTC

BECMG 2612/2614 16010KT

Becoming

Becoming Conditions expected by Wed, Jun 26, 2019 @ 14:00 UTC

Wind
  • 160° at 10 KTS
Cloud Levels
  • Few at 2,000' AGL

Jun-26@
18:00 UTC

Jun-26 @ 18:00 UTC

Jun-27@
06:00 UTC

Jun-27 @ 06:00 UTC

BECMG 2618/2620 23010KT

Becoming

Becoming Conditions expected by Wed, Jun 26, 2019 @ 20:00 UTC

Wind
  • 230° at 10 KTS
Cloud Levels
  • Few at 2,000' AGL